Peletier, North Carolina
Current Conditions -  °F | °C
As of 1:57 PM on Friday 24 Oct 2014 (Local Time) from KNJM Reporting Station
Broken Clouds Broken Clouds  
Wind Chill: 67°   Ceiling: 15000
Heat Index: 67°   Visibility: 10mi
Dew Point: 47°   Wind: 0mph
Humidity: 49%   Direction: NA
Pressure: 29.99"   Gusts: NA
Location:  34.7017°N, 77.1399°W
Report Text: KNJM 241757Z 000000KT 10SM BKN150 19/08 A2999 RMK SLP160 T01940083 10206 20094 58020
Loading
Personal Weather Stations






























Interactive Weather Map
Tropical Storm Tracking
New forecast layout! Learn more

10-Day Weather Forecast

Advertisements
Track Severe Weather on mobile